Time;durP1;ratioP1;P1;durP2;ratioP2;P2;SDS_P1;SDS_P2;PMS_P1;PMS_P2;Temp;Humidity;BMP_temperature;BMP_pressure;BME280_temperature;BME280_humidity;BME280_pressure;Samples;Min_cycle;Max_cycle;Signal;HPM_P1;HPM_P2
2022/04/21 00:02:17;;;;;;;221.65;45.55;;;10.90;99.90;;;;;;5035207;28;20033;-62
2022/04/21 00:04:43;;;;;;;250.20;49.38;;;10.90;99.90;;;;;;5035444;28;20509;-62
2022/04/21 00:07:08;;;;;;;177.10;38.97;;;10.80;99.90;;;;;;5032585;28;20025;-63
2022/04/21 00:09:34;;;;;;;344.50;53.30;;;10.70;99.90;;;;;;5032565;28;20092;-62
2022/04/21 00:12:00;;;;;;;259.00;61.80;;;10.70;99.90;;;;;;5037299;28;20227;-62
2022/04/21 00:14:26;;;;;;;209.18;41.05;;;10.70;99.90;;;;;;5034008;28;20013;-62
2022/04/21 00:16:51;;;;;;;275.85;55.90;;;10.70;99.90;;;;;;5033795;28;20037;-63
2022/04/21 00:19:17;;;;;;;219.27;53.55;;;10.50;99.90;;;;;;5035231;28;20025;-63
2022/04/21 00:24:27;;;;;;;262.20;53.50;;;10.70;99.90;;;;;;5045594;28;20561;-62
2022/04/21 00:26:52;;;;;;;396.52;63.05;;;10.70;99.90;;;;;;5036454;28;20100;-62
2022/04/21 00:29:18;;;;;;;315.98;63.40;;;10.50;99.90;;;;;;5035073;28;20091;-63
2022/04/21 00:31:44;;;;;;;187.27;44.00;;;10.60;99.90;;;;;;5033558;28;20049;-62
2022/04/21 00:34:10;;;;;;;298.83;53.63;;;10.50;99.90;;;;;;5033942;28;20041;-62
2022/04/21 00:36:36;;;;;;;320.17;53.33;;;10.50;99.90;;;;;;5031503;28;20041;-61
2022/04/21 00:39:02;;;;;;;467.92;60.90;;;10.50;99.90;;;;;;5036587;28;20041;-62
2022/04/21 00:41:27;;;;;;;215.65;46.08;;;10.40;99.90;;;;;;5034837;28;20113;-62
2022/04/21 00:43:53;;;;;;;248.35;48.33;;;10.40;99.90;;;;;;5034656;28;20053;-62
2022/04/21 00:46:21;;;;;;;205.88;47.00;;;10.60;99.90;;;;;;5035250;28;20021;-63
2022/04/21 00:48:49;;;;;;;453.50;74.80;;;10.60;99.90;;;;;;5030668;28;20036;-62
2022/04/21 00:51:15;;;;;;;541.72;83.57;;;10.50;99.90;;;;;;5035550;28;20033;-62
2022/04/21 00:53:42;;;;;;;253.35;46.13;;;10.40;99.90;;;;;;5035473;28;20072;-63
2022/04/21 00:56:09;;;;;;;462.83;76.60;;;10.40;99.90;;;;;;5033100;28;20029;-62
2022/04/21 00:58:37;;;;;;;131.73;38.33;;;10.50;99.90;;;;;;5034680;28;20055;-62
2022/04/21 01:02:46;;;;;;;288.83;59.30;;;10.60;99.90;;;;;;5032631;28;20029;-62
2022/04/21 01:03:49;;;;;;;261.88;50.67;;;10.70;99.90;;;;;;5015278;28;20479;-62
2022/04/21 01:06:15;;;;;;;175.15;40.92;;;10.60;99.90;;;;;;5034630;28;20025;-62
2022/04/21 01:08:42;;;;;;;146.82;39.50;;;10.60;99.90;;;;;;5034783;28;20478;-62
2022/04/21 01:11:09;;;;;;;259.15;46.47;;;10.50;99.90;;;;;;5034388;28;20052;-63
2022/04/21 01:13:35;;;;;;;415.48;71.32;;;10.60;99.90;;;;;;5034454;28;20035;-63
2022/04/21 01:16:01;;;;;;;148.55;37.08;;;10.50;99.90;;;;;;5032265;28;20029;-62
2022/04/21 01:18:28;;;;;;;401.35;61.78;;;10.50;99.90;;;;;;5032573;28;20018;-63
2022/04/21 01:20:53;;;;;;;375.25;58.15;;;10.40;99.90;;;;;;5036064;28;20034;-63
2022/04/21 01:23:19;;;;;;;403.45;54.25;;;10.30;99.90;;;;;;5034284;28;20049;-63
2022/04/21 01:25:45;;;;;;;456.08;58.70;;;10.40;99.90;;;;;;5034282;28;20108;-63
2022/04/21 01:28:11;;;;;;;225.52;46.08;;;10.40;99.90;;;;;;5033652;28;20029;-63
2022/04/21 01:30:38;;;;;;;248.27;52.10;;;10.40;99.90;;;;;;5030365;28;20045;-62
2022/04/21 01:33:04;;;;;;;211.07;50.88;;;10.40;99.90;;;;;;5034864;28;20383;-63
2022/04/21 01:35:30;;;;;;;410.35;59.92;;;10.40;99.90;;;;;;5032816;28;20037;-63
2022/04/21 01:43:24;;;;;;;435.02;60.75;;;10.40;99.90;;;;;;5033995;28;20396;-62
2022/04/21 01:45:50;;;;;;;569.45;72.50;;;10.40;99.90;;;;;;5030175;28;20033;-63
2022/04/21 01:48:15;;;;;;;343.92;56.58;;;10.50;99.90;;;;;;5035502;28;20054;-63
2022/04/21 01:50:41;;;;;;;175.68;40.80;;;10.30;99.90;;;;;;5034251;28;20044;-62
2022/04/21 01:53:07;;;;;;;221.35;37.83;;;10.40;99.90;;;;;;5034021;28;20021;-63
2022/04/21 01:55:32;;;;;;;338.38;47.30;;;10.40;99.90;;;;;;5034045;28;20036;-63
2022/04/21 01:57:58;;;;;;;308.73;54.80;;;10.30;99.90;;;;;;5031375;28;20033;-63
2022/04/21 02:00:24;;;;;;;444.02;62.58;;;10.30;99.90;;;;;;5033487;28;20029;-63
2022/04/21 02:02:50;;;;;;;304.45;51.33;;;10.20;99.90;;;;;;5033416;28;20437;-63
2022/04/21 02:05:16;;;;;;;177.75;37.65;;;10.20;99.90;;;;;;5033914;28;20025;-62
2022/04/21 02:07:44;;;;;;;387.33;56.13;;;10.20;99.90;;;;;;5034256;28;20025;-63
2022/04/21 02:10:10;;;;;;;348.35;50.15;;;10.30;99.90;;;;;;5031392;28;20044;-63
2022/04/21 02:12:36;;;;;;;547.67;66.10;;;10.20;99.90;;;;;;5030379;28;20026;-63
2022/04/21 02:15:02;;;;;;;430.73;64.50;;;10.10;99.90;;;;;;5034551;28;20032;-62
2022/04/21 02:17:30;;;;;;;347.40;44.92;;;10.10;99.90;;;;;;5033485;28;20056;-63
2022/04/21 02:19:55;;;;;;;473.48;65.20;;;10.10;99.90;;;;;;5033748;28;20082;-62
2022/04/21 02:22:22;;;;;;;153.27;35.78;;;9.90;99.90;;;;;;5034235;28;20025;-63
2022/04/21 02:24:48;;;;;;;436.80;51.53;;;10.10;99.90;;;;;;5032082;28;20033;-63
2022/04/21 02:27:14;;;;;;;605.63;65.40;;;10.10;99.90;;;;;;5039018;28;20033;-63
2022/04/21 02:29:39;;;;;;;187.18;34.33;;;9.90;99.90;;;;;;5035860;28;20087;-64
2022/04/21 02:32:05;;;;;;;618.70;63.70;;;10.00;99.90;;;;;;5037236;28;20465;-64
2022/04/21 02:34:31;;;;;;;477.38;51.28;;;9.90;99.90;;;;;;5036070;28;20048;-63
2022/04/21 02:36:57;;;;;;;601.15;74.03;;;9.80;99.90;;;;;;5034151;28;20025;-64
2022/04/21 02:39:24;;;;;;;197.70;38.58;;;9.70;99.90;;;;;;5036783;28;20467;-64
2022/04/21 02:41:50;;;;;;;592.00;75.30;;;9.90;99.90;;;;;;5038591;28;20037;-64
2022/04/21 02:44:16;;;;;;;566.92;70.55;;;9.80;99.90;;;;;;5037116;28;20029;-63
2022/04/21 02:46:42;;;;;;;582.53;65.05;;;9.80;99.90;;;;;;5035491;28;20041;-64
2022/04/21 02:49:08;;;;;;;430.25;56.75;;;9.70;99.90;;;;;;5034324;28;20035;-64
2022/04/21 02:51:35;;;;;;;373.77;50.67;;;9.70;99.90;;;;;;5034091;28;20034;-62
2022/04/21 02:59:31;;;;;;;186.77;30.92;;;10.00;99.90;;;;;;5037100;28;20080;-63
2022/04/21 03:01:57;;;;;;;245.52;33.83;;;10.10;99.90;;;;;;5036412;28;20032;-64
2022/04/21 03:04:23;;;;;;;512.92;61.35;;;10.00;99.90;;;;;;5037102;28;20112;-63
2022/04/21 03:06:49;;;;;;;333.92;38.95;;;9.90;99.90;;;;;;5031354;28;20025;-64
2022/04/21 03:09:14;;;;;;;286.70;41.47;;;9.80;99.90;;;;;;5038179;28;20036;-64
2022/04/21 03:11:40;;;;;;;331.45;46.83;;;9.80;99.90;;;;;;5036488;28;20061;-64
2022/04/21 03:14:06;;;;;;;195.38;36.25;;;9.90;99.90;;;;;;5036452;28;20033;-63
2022/04/21 03:16:32;;;;;;;287.33;46.03;;;9.90;99.90;;;;;;5036263;28;20033;-63
2022/04/21 03:18:57;;;;;;;281.80;48.45;;;9.90;99.90;;;;;;5033638;28;20070;-64
2022/04/21 03:24:19;;;;;;;225.43;49.13;;;9.90;99.90;;;;;;5038182;28;20100;-64
2022/04/21 03:26:50;;;;;;;142.50;38.63;;;9.90;99.90;;;;;;5035398;28;20034;-63
2022/04/21 03:29:16;;;;;;;183.13;38.50;;;9.90;99.90;;;;;;5034476;28;20021;-64
2022/04/21 03:31:43;;;;;;;76.25;29.95;;;10.00;99.90;;;;;;5034788;28;20030;-64
2022/04/21 03:34:13;;;;;;;72.25;30.48;;;10.00;99.90;;;;;;5034927;28;20032;-63
2022/04/21 03:36:42;;;;;;;125.25;33.78;;;10.10;99.90;;;;;;5031560;28;20418;-64
2022/04/21 03:39:09;;;;;;;117.50;32.70;;;10.00;99.90;;;;;;5038010;28;20041;-63
2022/04/21 03:41:35;;;;;;;129.18;34.60;;;10.00;99.90;;;;;;5035775;28;20033;-63
2022/04/21 03:44:01;;;;;;;125.30;34.13;;;10.00;99.90;;;;;;5035952;28;20028;-63
2022/04/21 03:46:26;;;;;;;64.30;25.17;;;10.00;99.90;;;;;;5035874;28;20070;-63
2022/04/21 03:48:52;;;;;;;71.78;25.75;;;10.10;99.90;;;;;;5032529;28;20017;-64
2022/04/21 03:51:18;;;;;;;58.38;25.05;;;10.10;99.90;;;;;;5036229;28;20405;-63
2022/04/21 03:53:43;;;;;;;55.50;25.08;;;10.20;99.90;;;;;;5034909;28;20029;-64
2022/04/21 03:56:09;;;;;;;49.10;23.05;;;10.20;99.90;;;;;;5035710;28;20018;-63
2022/04/21 03:58:35;;;;;;;65.97;24.33;;;10.20;99.90;;;;;;5035561;28;20420;-63
2022/04/21 04:01:00;;;;;;;76.22;26.42;;;10.10;99.90;;;;;;5032570;28;20028;-64
2022/04/21 04:03:26;;;;;;;115.35;33.50;;;10.10;99.90;;;;;;5034081;28;20044;-63
2022/04/21 04:05:52;;;;;;;96.53;32.00;;;10.10;99.90;;;;;;5036888;28;20075;-64
2022/04/21 04:11:01;;;;;;;75.20;27.58;;;10.00;99.90;;;;;;5033972;28;20406;-63
2022/04/21 04:13:27;;;;;;;50.03;23.92;;;10.20;99.90;;;;;;5035180;28;20025;-63
2022/04/21 04:15:54;;;;;;;72.53;26.92;;;10.20;99.90;;;;;;5031933;28;20040;-64
2022/04/21 04:18:21;;;;;;;108.03;35.17;;;10.10;99.90;;;;;;5035476;28;20021;-63
2022/04/21 04:20:47;;;;;;;57.72;27.60;;;10.10;99.90;;;;;;5036390;28;20064;-64
2022/04/21 04:23:20;;;;;;;114.18;36.97;;;10.00;99.90;;;;;;5035180;28;20018;-64
2022/04/21 04:25:46;;;;;;;96.68;33.20;;;10.00;99.90;;;;;;5033675;28;20033;-63
2022/04/21 04:28:12;;;;;;;101.45;34.00;;;10.00;99.90;;;;;;5034167;28;20024;-63
2022/04/21 04:30:38;;;;;;;186.57;44.47;;;10.10;99.90;;;;;;5031312;28;20045;-64
2022/04/21 04:33:05;;;;;;;155.38;40.58;;;10.00;99.90;;;;;;5037053;28;20026;-64
2022/04/21 04:35:31;;;;;;;167.13;40.70;;;10.00;99.90;;;;;;5035373;28;20100;-64
2022/04/21 04:37:58;;;;;;;99.05;35.72;;;10.00;99.90;;;;;;5034728;28;20095;-64
2022/04/21 04:40:24;;;;;;;158.35;43.45;;;10.00;99.90;;;;;;5034781;28;20025;-64
2022/04/21 04:42:52;;;;;;;149.55;41.45;;;9.90;99.90;;;;;;5030872;28;20017;-64
2022/04/21 04:48:01;;;;;;;;;;;9.90;99.90;;;;;;5035893;28;20553;-64
2022/04/21 04:50:27;;;;;;;116.13;32.05;;;9.90;99.90;;;;;;5033490;28;19913;-64
2022/04/21 04:52:58;;;;;;;105.40;36.38;;;9.90;99.90;;;;;;5034646;28;20425;-63
2022/04/21 04:55:24;;;;;;;68.57;33.03;;;10.00;99.90;;;;;;5034660;28;20078;-63
2022/04/21 04:57:50;;;;;;;204.90;48.00;;;10.00;99.90;;;;;;5030620;28;20476;-64
2022/04/21 05:00:16;;;;;;;153.50;40.58;;;10.00;99.90;;;;;;5035678;28;20104;-64
2022/04/21 05:02:42;;;;;;;50.40;27.25;;;9.90;99.90;;;;;;5034964;28;20033;-64
2022/04/21 05:05:08;;;;;;;68.68;28.77;;;10.00;99.90;;;;;;5033171;28;20025;-64
2022/04/21 05:07:35;;;;;;;103.30;35.17;;;10.00;99.90;;;;;;5034403;28;20035;-64
2022/04/21 05:10:01;;;;;;;101.45;35.28;;;10.00;99.90;;;;;;5032517;28;20033;-64
2022/04/21 05:12:27;;;;;;;76.57;31.85;;;10.00;99.90;;;;;;5032630;28;20029;-63
2022/04/21 05:14:52;;;;;;;71.07;31.90;;;10.10;99.90;;;;;;5035870;28;20087;-64
2022/04/21 05:17:18;;;;;;;37.35;24.48;;;10.10;99.90;;;;;;5034206;28;20441;-64
2022/04/21 05:19:45;;;;;;;52.83;27.35;;;10.20;99.90;;;;;;5034565;28;20445;-64
2022/04/21 05:22:12;;;;;;;67.05;31.90;;;10.20;99.90;;;;;;5033707;28;20021;-63
2022/04/21 05:24:39;;;;;;;43.40;26.58;;;10.20;99.90;;;;;;5030027;28;20061;-64
2022/04/21 05:27:06;;;;;;;56.50;28.27;;;10.20;99.90;;;;;;5035380;28;20025;-64
2022/04/21 05:32:18;;;;;;;57.50;28.63;;;10.20;99.90;;;;;;5034540;28;20087;-64
2022/04/21 05:34:44;;;;;;;36.90;24.23;;;10.20;99.90;;;;;;5034289;28;20021;-63
2022/04/21 05:37:11;;;;;;;69.38;30.08;;;10.20;99.90;;;;;;5033080;28;20041;-64
2022/04/21 05:39:37;;;;;;;59.95;27.85;;;10.10;99.90;;;;;;5030414;28;20045;-64
2022/04/21 05:42:05;;;;;;;67.70;30.23;;;10.20;99.90;;;;;;5036225;28;20048;-63
2022/04/21 05:44:31;;;;;;;59.00;27.30;;;10.20;99.90;;;;;;5034417;28;20030;-64
2022/04/21 05:46:58;;;;;;;39.63;24.67;;;10.20;99.90;;;;;;5034284;28;20029;-64
2022/04/21 05:49:24;;;;;;;35.92;22.98;;;10.20;99.90;;;;;;5034156;28;20013;-63
2022/04/21 05:51:56;;;;;;;34.65;23.35;;;10.40;99.90;;;;;;5030211;28;20108;-63
2022/04/21 05:54:22;;;;;;;42.75;23.98;;;10.40;99.90;;;;;;5033889;28;20028;-64
2022/04/21 05:56:48;;;;;;;66.43;31.05;;;10.40;99.90;;;;;;5034956;28;20402;-63
2022/04/21 05:59:14;;;;;;;56.25;27.88;;;10.30;99.90;;;;;;5034447;28;20018;-62
2022/04/21 06:01:39;;;;;;;56.22;29.10;;;10.40;99.90;;;;;;5037867;28;20032;-62
2022/04/21 06:04:05;;;;;;;43.83;25.85;;;10.40;99.90;;;;;;5034964;28;20817;-63
2022/04/21 06:06:31;;;;;;;65.63;30.40;;;10.50;99.90;;;;;;5034981;28;20033;-63
2022/04/21 06:08:57;;;;;;;61.92;28.92;;;10.50;99.90;;;;;;5037680;28;20032;-64
2022/04/21 06:11:24;;;;;;;60.70;29.48;;;10.50;99.90;;;;;;5037494;28;20533;-63
2022/04/21 06:13:51;;;;;;;68.35;30.10;;;10.50;99.90;;;;;;5037455;28;20049;-63
2022/04/21 06:16:16;;;;;;;55.72;27.20;;;10.50;99.90;;;;;;5037375;28;20028;-62
2022/04/21 06:18:42;;;;;;;42.47;23.90;;;10.60;99.90;;;;;;5033519;28;20026;-63
2022/04/21 06:21:08;;;;;;;55.70;27.63;;;10.70;99.90;;;;;;5039153;28;20136;-63
2022/04/21 06:23:33;;;;;;;57.22;27.35;;;10.70;99.90;;;;;;5034347;28;20029;-62
2022/04/21 06:26:00;;;;;;;63.38;28.15;;;10.80;99.90;;;;;;5037148;28;20029;-64
2022/04/21 06:28:26;;;;;;;39.88;23.20;;;10.70;99.90;;;;;;5037073;28;20099;-62
2022/04/21 06:30:52;;;;;;;46.38;23.83;;;10.90;99.90;;;;;;5034042;28;20450;-63
2022/04/21 06:33:18;;;;;;;40.05;22.77;;;11.00;99.90;;;;;;5037609;28;20029;-62
2022/04/21 06:35:44;;;;;;;42.60;23.55;;;11.00;99.90;;;;;;5037742;28;20450;-62
2022/04/21 06:38:11;;;;;;;46.92;24.23;;;11.10;99.90;;;;;;5036643;28;20076;-63
2022/04/21 06:40:37;;;;;;;51.13;27.90;;;11.10;99.90;;;;;;5037050;28;20071;-64
2022/04/21 06:48:01;;;;;;;36.80;23.58;;;11.10;99.90;;;;;;5033888;28;20112;-64
2022/04/21 06:48:33;;;;;;;;;;;11.30;99.90;;;;;;5034488;28;20029;-64
2022/04/21 06:50:58;;;;;;;56.30;29.65;;;11.40;99.90;;;;;;5037795;28;19913;-63
2022/04/21 06:53:24;;;;;;;68.65;39.10;;;11.30;99.90;;;;;;5036726;28;20083;-63
2022/04/21 06:55:50;;;;;;;59.17;34.20;;;11.50;99.90;;;;;;5036891;28;20502;-63
2022/04/21 06:58:15;;;;;;;66.75;34.30;;;11.50;99.90;;;;;;5036619;28;20382;-63
2022/04/21 07:00:41;;;;;;;46.83;25.80;;;11.30;99.90;;;;;;5032648;28;20025;-63
2022/04/21 07:03:08;;;;;;;48.88;24.75;;;11.50;99.90;;;;;;5039018;28;20045;-63
2022/04/21 07:05:34;;;;;;;44.70;23.33;;;11.70;99.90;;;;;;5036519;28;20541;-63
2022/04/21 07:07:59;;;;;;;69.97;27.25;;;11.70;99.90;;;;;;5036229;28;20113;-63
2022/04/21 07:10:25;;;;;;;57.75;25.50;;;11.70;99.90;;;;;;5036408;28;20029;-63
2022/04/21 07:12:51;;;;;;;48.85;22.48;;;11.90;99.90;;;;;;5032617;28;20035;-63
2022/04/21 07:15:17;;;;;;;62.05;22.92;;;12.20;99.90;;;;;;5029016;28;20428;-63
2022/04/21 07:17:43;;;;;;;61.42;21.40;;;12.30;99.90;;;;;;5042896;28;20078;-62
2022/04/21 07:20:11;;;;;;;46.00;21.17;;;12.50;99.90;;;;;;5040544;28;20025;-63
2022/04/21 07:22:36;;;;;;;44.42;19.42;;;12.50;99.90;;;;;;5033505;28;20071;-63
2022/04/21 07:25:05;;;;;;;44.40;19.80;;;12.60;99.90;;;;;;5032635;28;20030;-63
2022/04/21 07:27:31;;;;;;;57.53;20.92;;;12.70;99.90;;;;;;5033811;28;20090;-62
2022/04/21 07:29:56;;;;;;;47.80;19.65;;;12.90;99.90;;;;;;5037012;28;20041;-63
2022/04/21 07:32:22;;;;;;;52.28;21.08;;;13.00;99.90;;;;;;5035860;28;20405;-63
2022/04/21 07:34:48;;;;;;;57.00;19.58;;;13.20;99.90;;;;;;5036295;28;20037;-63
2022/04/21 07:37:14;;;;;;;51.65;19.42;;;13.40;99.90;;;;;;5033903;28;20132;-63
2022/04/21 07:39:42;;;;;;;44.83;19.05;;;13.30;99.90;;;;;;5031984;28;20121;-62
2022/04/21 07:42:09;;;;;;;48.63;18.73;;;13.40;99.90;;;;;;5037595;28;20478;-63
2022/04/21 07:44:35;;;;;;;47.58;19.50;;;13.50;99.90;;;;;;5044479;28;20494;-62
2022/04/21 07:47:02;;;;;;;51.80;19.38;;;13.40;99.90;;;;;;5040340;28;20113;-64
2022/04/21 07:49:46;;;;;;;48.97;19.60;;;13.40;99.90;;;;;;5035749;28;20489;-63
2022/04/21 07:55:27;;;;;;;46.38;18.55;;;13.50;99.90;;;;;;5024774;28;20036;-62
2022/04/21 07:57:55;;;;;;;39.22;18.67;;;13.80;99.90;;;;;;5031254;28;20025;-63
2022/04/21 08:00:22;;;;;;;43.83;19.10;;;14.10;99.90;;;;;;5035187;28;20112;-63
2022/04/21 08:02:49;;;;;;;43.85;18.40;;;14.20;99.90;;;;;;5036635;28;20032;-63
2022/04/21 08:05:16;;;;;;;43.47;17.23;;;15.20;99.90;;;;;;5032192;28;20111;-64
2022/04/21 08:07:44;;;;;;;41.10;16.77;;;15.20;99.90;;;;;;5035729;28;20033;-63
2022/04/21 08:10:11;;;;;;;40.65;17.48;;;15.80;99.90;;;;;;5034263;28;20421;-64
2022/04/21 08:12:41;;;;;;;35.47;17.38;;;15.80;99.90;;;;;;5030761;28;20041;-63
2022/04/21 08:15:08;;;;;;;32.53;15.38;;;15.90;99.90;;;;;;5037103;28;20025;-63
2022/04/21 08:17:36;;;;;;;33.92;16.70;;;16.40;99.90;;;;;;5035569;28;20026;-63
2022/04/21 08:20:03;;;;;;;31.90;14.65;;;16.20;99.90;;;;;;5034009;28;20076;-63
2022/04/21 08:22:29;;;;;;;34.30;15.30;;;17.50;99.90;;;;;;5034747;28;20017;-63
2022/04/21 08:33:07;;;;;;;33.20;16.35;;;16.60;99.90;;;;;;5035996;28;20067;-63
2022/04/21 08:35:33;;;;;;;31.95;15.38;;;16.70;99.90;;;;;;5034277;28;20481;-63
2022/04/21 08:37:58;;;;;;;32.70;15.40;;;17.30;99.90;;;;;;5034589;28;20047;-63
2022/04/21 08:40:27;;;;;;;26.25;14.00;;;18.00;99.90;;;;;;5033080;28;20489;-63
2022/04/21 08:42:54;;;;;;;29.10;14.82;;;18.40;99.90;;;;;;5029400;28;20105;-63
2022/04/21 08:45:22;;;;;;;26.83;13.90;;;18.10;99.90;;;;;;5034543;28;20053;-63
2022/04/21 08:47:49;;;;;;;23.38;12.07;;;20.70;99.90;;;;;;5034159;28;20052;-63
2022/04/21 08:50:16;;;;;;;29.15;13.02;;;21.80;99.90;;;;;;5034449;28;20045;-62
2022/04/21 08:52:43;;;;;;;29.95;12.60;;;21.00;99.90;;;;;;5034823;28;20104;-61
2022/04/21 08:55:11;;;;;;;20.92;13.02;;;20.10;99.90;;;;;;5032546;28;20511;-60
2022/04/21 08:57:37;;;;;;;26.08;13.57;;;19.30;99.90;;;;;;5030855;28;20029;-60
2022/04/21 09:00:08;;;;;;;29.17;13.60;;;18.80;99.90;;;;;;5035221;28;20402;-63
2022/04/21 09:02:39;;;;;;;26.77;14.10;;;18.50;99.90;;;;;;5032252;28;20107;-60
2022/04/21 09:05:06;;;;;;;23.85;12.52;;;18.30;99.90;;;;;;5034315;28;20030;-60
2022/04/21 09:07:41;;;;;;;27.00;13.95;;;18.10;99.90;;;;;;5033987;28;20056;-60
2022/04/21 09:10:12;;;;;;;22.00;13.68;;;17.90;99.90;;;;;;5032360;28;20048;-60
2022/04/21 09:12:45;;;;;;;23.80;13.25;;;17.60;99.90;;;;;;5031172;28;20025;-60
2022/04/21 09:15:16;;;;;;;22.42;13.02;;;17.70;99.90;;;;;;5036323;28;20525;-63
2022/04/21 09:17:46;;;;;;;24.35;12.75;;;18.50;99.90;;;;;;5032889;28;20040;-63
2022/04/21 09:20:13;;;;;;;26.23;13.27;;;18.80;99.90;;;;;;5032886;28;20033;-63
2022/04/21 09:22:47;;;;;;;27.65;13.25;;;18.80;99.90;;;;;;5032813;28;20084;-63
2022/04/21 09:25:12;;;;;;;27.73;12.70;;;19.30;99.90;;;;;;5033249;28;20025;-63
2022/04/21 09:27:45;;;;;;;27.73;13.93;;;19.50;99.90;;;;;;5030820;28;20014;-63
2022/04/21 09:30:15;;;;;;;22.10;13.35;;;19.20;99.90;;;;;;5035482;28;20399;-64
2022/04/21 09:32:52;;;;;;;20.55;12.43;;;19.00;99.90;;;;;;5033352;28;20056;-63
2022/04/21 09:35:18;;;;;;;23.25;12.75;;;18.80;99.90;;;;;;5037601;28;20044;-63
2022/04/21 09:37:46;;;;;;;22.58;12.40;;;19.10;99.90;;;;;;5036323;28;20045;-63
2022/04/21 09:40:12;;;;;;;24.48;13.65;;;19.20;99.90;;;;;;5036981;28;20048;-63
2022/04/21 09:42:38;;;;;;;23.42;13.30;;;19.00;99.90;;;;;;5034529;28;20056;-60
2022/04/21 09:47:50;;;;;;;21.60;12.38;;;18.70;99.90;;;;;;5038804;28;20041;-63
2022/04/21 09:50:16;;;;;;;23.33;13.07;;;18.70;99.90;;;;;;5037905;28;20045;-62
2022/04/21 09:52:53;;;;;;;19.15;11.77;;;19.20;99.90;;;;;;5037723;28;20063;-62
2022/04/21 09:55:26;;;;;;;20.55;11.68;;;20.00;99.90;;;;;;5037765;28;20050;-62
2022/04/21 09:58:08;;;;;;;19.00;11.35;;;21.80;99.90;;;;;;5017699;28;20092;-62
2022/04/21 10:00:36;;;;;;;18.30;11.40;;;22.80;99.90;;;;;;5034781;28;20113;-64
2022/04/21 10:03:04;;;;;;;17.98;9.90;;;22.40;99.90;;;;;;5038480;28;20030;-63
2022/04/21 10:05:35;;;;;;;22.80;10.40;;;23.00;99.90;;;;;;5038063;28;20398;-63
2022/04/21 10:08:02;;;;;;;19.23;11.43;;;23.30;99.90;;;;;;5037707;28;20037;-62
2022/04/21 10:10:32;;;;;;;20.30;10.95;;;22.60;99.90;;;;;;5037830;28;20029;-59
2022/04/21 10:13:00;;;;;;;18.10;10.88;;;22.50;99.90;;;;;;5034786;28;20079;-60
2022/04/21 10:15:26;;;;;;;17.52;10.75;;;22.80;99.90;;;;;;5036415;28;20037;-59
2022/04/21 10:17:52;;;;;;;19.02;10.40;;;22.50;99.90;;;;;;5038802;28;20026;-60
2022/04/21 10:20:24;;;;;;;20.95;11.35;;;22.00;99.90;;;;;;5037428;28;20026;-59
2022/04/21 10:22:51;;;;;;;22.00;10.52;;;21.40;99.90;;;;;;5037387;28;20025;-60
2022/04/21 10:25:22;;;;;;;20.15;10.68;;;20.80;99.90;;;;;;5037094;28;20020;-60
2022/04/21 10:27:49;;;;;;;21.35;11.10;;;20.20;99.90;;;;;;5018005;28;20026;-59
2022/04/21 10:30:25;;;;;;;21.27;10.27;;;20.40;99.90;;;;;;5038592;28;20037;-59
2022/04/21 10:32:55;;;;;;;17.15;10.30;;;21.00;99.90;;;;;;5038475;28;20634;-62
2022/04/21 10:35:24;;;;;;;17.70;10.40;;;21.90;99.90;;;;;;5037213;28;20021;-62
2022/04/21 10:38:14;;;;;;;18.90;10.10;;;22.40;99.90;;;;;;5035828;28;20049;-63
2022/04/21 10:41:10;;;;;;;18.40;10.77;;;22.60;99.90;;;;;;5035198;28;20578;-60
2022/04/21 10:43:48;;;;;;;19.80;11.18;;;21.70;99.90;;;;;;5036510;28;20017;-60
2022/04/21 10:46:21;;;;;;;20.40;11.02;;;21.50;99.90;;;;;;5035547;28;20111;-61
2022/04/21 10:48:48;;;;;;;23.67;10.27;;;22.00;99.90;;;;;;5017042;28;20026;-62
2022/04/21 10:57:16;;;;;;;15.73;10.65;;;21.30;99.90;;;;;;5036846;28;20091;-60
2022/04/21 11:00:11;;;;;;;20.10;11.02;;;21.10;99.90;;;;;;5035729;28;20045;-60
2022/04/21 11:02:44;;;;;;;18.00;10.70;;;20.90;99.90;;;;;;5035596;28;20048;-60
2022/04/21 11:05:22;;;;;;;20.00;10.75;;;20.70;99.90;;;;;;5035286;28;20033;-63
2022/04/21 11:07:52;;;;;;;17.25;10.23;;;20.90;99.90;;;;;;5036128;28;20037;-60
2022/04/21 11:10:36;;;;;;;17.02;9.70;;;21.20;99.90;;;;;;5035352;28;20441;-60
2022/04/21 11:13:03;;;;;;;14.75;8.65;;;21.50;99.90;;;;;;5033257;28;20028;-60
2022/04/21 11:15:49;;;;;;;16.92;8.88;;;21.30;99.90;;;;;;5033469;28;20033;-61
2022/04/21 11:18:20;;;;;;;16.25;8.82;;;21.50;99.90;;;;;;5044105;28;20052;-61
2022/04/21 11:20:50;;;;;;;15.63;8.27;;;22.10;99.90;;;;;;5035393;28;20030;-61
2022/04/21 11:23:25;;;;;;;15.48;8.60;;;23.30;99.90;;;;;;5035361;28;20049;-61
2022/04/21 11:25:52;;;;;;;14.15;8.65;;;22.70;99.90;;;;;;5035603;28;20038;-61
2022/04/21 11:28:25;;;;;;;20.75;10.15;;;22.90;99.90;;;;;;5034828;28;20041;-60
2022/04/21 11:30:59;;;;;;;20.67;10.65;;;23.00;99.90;;;;;;5027689;28;20050;-61
2022/04/21 11:33:24;;;;;;;17.58;9.48;;;22.70;99.90;;;;;;5035485;28;20025;-61
2022/04/21 11:36:10;;;;;;;15.43;8.45;;;21.90;99.90;;;;;;5037005;28;20099;-60
2022/04/21 11:38:40;;;;;;;13.95;8.98;;;21.30;99.90;;;;;;5035819;28;20053;-62
2022/04/21 11:41:09;;;;;;;14.45;7.88;;;21.00;99.90;;;;;;5035956;28;20064;-62
2022/04/21 11:43:35;;;;;;;16.83;9.15;;;20.90;99.90;;;;;;5036062;28;20103;-62
2022/04/21 11:46:03;;;;;;;18.80;9.68;;;21.30;99.90;;;;;;5031875;28;20060;-61
2022/04/21 11:48:31;;;;;;;18.67;9.95;;;21.60;99.90;;;;;;5031363;28;20017;-61
2022/04/21 11:50:57;;;;;;;20.38;11.70;;;21.30;99.90;;;;;;5032066;28;20553;-61
2022/04/21 11:53:23;;;;;;;21.60;12.43;;;20.50;99.90;;;;;;5035755;28;20124;-62
2022/04/21 11:55:50;;;;;;;20.75;12.35;;;20.30;99.90;;;;;;5032906;28;20551;-62
2022/04/21 11:58:34;;;;;;;20.77;11.68;;;20.00;99.90;;;;;;5030868;28;20028;-61
2022/04/21 12:06:51;;;;;;;25.63;14.80;;;19.00;99.90;;;;;;5016239;28;20049;-61
2022/04/21 12:09:28;;;;;;;20.60;13.57;;;19.30;99.90;;;;;;5045163;28;20017;-62
2022/04/21 12:11:57;;;;;;;23.83;14.05;;;19.00;99.90;;;;;;5036516;28;20502;-62
2022/04/21 12:14:24;;;;;;;20.02;13.13;;;19.10;99.90;;;;;;5033954;28;20053;-61
2022/04/21 12:16:54;;;;;;;22.08;12.57;;;19.40;99.90;;;;;;5035039;28;20049;-62
2022/04/21 12:19:32;;;;;;;21.65;12.00;;;19.30;99.90;;;;;;5033928;28;20044;-60
2022/04/21 12:22:07;;;;;;;21.00;12.35;;;19.40;99.90;;;;;;5032547;28;20100;-60
2022/04/21 12:24:35;;;;;;;19.42;12.05;;;19.60;99.90;;;;;;5032280;28;20040;-61
2022/04/21 12:27:03;;;;;;;18.27;11.93;;;19.80;99.90;;;;;;5036644;28;20014;-61
2022/04/21 12:29:31;;;;;;;19.92;13.48;;;20.00;99.90;;;;;;5034811;28;20026;-60
2022/04/21 12:32:05;;;;;;;21.35;12.60;;;20.30;99.90;;;;;;5034667;28;20038;-60
2022/04/21 12:34:39;;;;;;;22.55;13.40;;;20.50;99.90;;;;;;5033307;28;20112;-61
2022/04/21 12:37:05;;;;;;;;;;;20.10;99.90;;;;;;5031903;28;20036;-61
2022/04/21 12:39:31;;;;;;;22.60;13.70;;;20.20;99.90;;;;;;5032719;28;19928;-60
2022/04/21 12:41:57;;;;;;;23.10;13.90;;;19.90;99.90;;;;;;5034836;28;20441;-62
2022/04/21 12:44:25;;;;;;;19.08;12.77;;;19.70;99.90;;;;;;5034612;28;20029;-61
2022/04/21 12:47:03;;;;;;;19.65;14.00;;;19.30;99.90;;;;;;5034746;28;20022;-61
2022/04/21 12:49:50;;;;;;;21.40;14.50;;;19.00;99.90;;;;;;5034255;28;20043;-61
2022/04/21 12:52:31;;;;;;;25.17;13.93;;;19.00;99.90;;;;;;5032334;28;20117;-62
2022/04/21 12:54:57;;;;;;;23.13;14.88;;;19.00;99.90;;;;;;5016566;28;20116;-61
2022/04/21 12:57:23;;;;;;;26.75;14.40;;;18.40;99.90;;;;;;5034140;28;20109;-61
2022/04/21 12:59:50;;;;;;;20.85;13.95;;;18.30;99.90;;;;;;5035411;28;20175;-61
2022/04/21 13:02:18;;;;;;;24.58;15.27;;;17.90;99.90;;;;;;5034457;28;20022;-61
2022/04/21 13:04:44;;;;;;;23.23;15.30;;;17.80;99.90;;;;;;5030126;28;20097;-61
2022/04/21 13:07:11;;;;;;;24.13;14.85;;;17.80;99.90;;;;;;5030952;28;20028;-60
2022/04/21 13:09:36;;;;;;;26.90;15.02;;;17.90;99.90;;;;;;5029309;28;20037;-61
2022/04/21 13:12:03;;;;;;;28.63;17.17;;;18.00;99.90;;;;;;5030966;28;20033;-60
2022/04/21 13:14:28;;;;;;;23.30;16.30;;;17.80;99.90;;;;;;5032324;28;20035;-60
2022/04/21 13:16:54;;;;;;;26.35;18.63;;;17.80;99.90;;;;;;5032924;28;20029;-61
2022/04/21 13:19:20;;;;;;;26.50;16.52;;;17.40;99.90;;;;;;5034292;28;20109;-61
2022/04/21 13:21:52;;;;;;;25.95;17.60;;;17.50;99.90;;;;;;5014133;28;20466;-61
2022/04/21 13:24:20;;;;;;;26.13;18.63;;;17.60;99.90;;;;;;5043692;28;20109;-61